Portada
METAR-TAF:

METAR-TAF

Aeroports :

Gioia del Colle, Itàlia

latitud: 40-46N, longitud: 016-56E, altitud: 345 m

Observació

L'informe es va fer fa 47 minuts, a les 21:55 UTC
Vent 5 kt del Nord
Temperatura 27°C
Humitat 54%
Pressió 1017 hPa
Visibilitat 10 km o més
sense núvols per sota de 1500 mi sense presència de cumulonimbus.

METAR: LIBV 182155Z 35005KT CAVOK 27/17 Q1017 RMK SKC VIS MIN 9999 WIND THR32 01006KT WIND THR14 34006KT BLU

Hora: 00:42 (22:42 UTC)

Pronòstic

L'informe es va fer fa 2 hores i 42 minuts, a les 20:00 UTC
Pronòstic vàlid del 18 a les 21 UTC al 19 a les 06 UTC
Vent 6 kt del Nord
Visibilitat 10 km o més
sense núvols per sota de 1500 mi sense presència de cumulonimbus.

TAF: LIBV 182000Z 1821/1906 35006KT CAVOK

Observacions i pronòstics meteorològics de més de 4000 aeroports (METAR i TAF).

Les estacions disponibles són els punts grocs i vermells al mapa.

Posi el ratolí al punt desitjat per veure el nom de l'estació.

Feu clic per veure les observacions i els pronòstics meteorològics.

Per canviar el mapa: feu clic els botons verds amb una creu de color negre per apropar; al botó verd amb un guió per allunyar la imatge; o en les fletxes verdes per a mapes adjacents.


METAR-TAF: